Time;durP1;ratioP1;P1;durP2;ratioP2;P2;SDS_P1;SDS_P2;PMS_P1;PMS_P2;Temp;Humidity;BMP_temperature;BMP_pressure;BME280_temperature;BME280_humidity;BME280_pressure;Samples;Min_cycle;Max_cycle;Signal;HPM_P1;HPM_P2
2022/06/02 00:00:02;;;;;;;6.25;2.35;;;;;;;14.88;56.80;100924.16;5081606;28;20048;-74
2022/06/02 00:03:02;;;;;;;2.60;2.40;;;;;;;14.89;57.08;100923.84;5090338;28;20040;-74
2022/06/02 00:05:29;;;;;;;2.20;1.45;;;;;;;14.88;57.32;100913.09;5091246;28;20043;-74
2022/06/02 00:08:28;;;;;;;3.22;2.50;;;;;;;14.85;57.56;100900.72;5082364;28;20098;-74
2022/06/02 00:11:02;;;;;;;3.85;2.88;;;;;;;14.82;57.99;100909.63;5063335;28;20060;-74
2022/06/02 00:13:37;;;;;;;4.82;2.45;;;;;;;14.79;58.10;100901.94;5089228;28;20506;-74
2022/06/02 00:16:11;;;;;;;7.15;3.10;;;;;;;14.76;58.49;100884.03;5089944;28;20051;-74
2022/06/02 00:18:59;;;;;;;4.10;3.22;;;;;;;14.73;58.82;100890.13;5084414;28;20403;-74
2022/06/02 00:21:28;;;;;;;2.50;2.28;;;;;;;14.68;58.37;100881.94;5085195;28;20134;-74
2022/06/02 00:24:03;;;;;;;6.57;3.00;;;;;;;14.64;59.13;100886.44;5093863;28;20084;-74
2022/06/02 00:27:06;;;;;;;3.13;2.50;;;;;;;14.61;59.16;100873.25;5090215;28;20084;-74
2022/06/02 00:29:43;;;;;;;3.33;2.45;;;;;;;14.58;59.56;100873.84;5069896;28;20044;-74
2022/06/02 00:32:11;;;;;;;6.07;3.97;;;;;;;14.54;59.50;100864.50;5069807;28;20554;-74
2022/06/02 00:34:41;;;;;;;2.90;1.42;;;;;;;14.53;59.55;100851.00;5084675;28;20640;-74
2022/06/02 00:37:34;;;;;;;7.97;3.67;;;;;;;14.53;59.75;100839.97;5070780;28;20050;-74
2022/06/02 00:40:00;;;;;;;4.15;3.58;;;;;;;14.49;59.79;100842.50;5071040;28;20127;-74
2022/06/02 00:42:26;;;;;;;2.83;2.40;;;;;;;14.45;60.40;100822.16;5069710;28;20056;-74
2022/06/02 00:44:54;;;;;;;3.13;2.78;;;;;;;14.44;60.40;100821.34;5082239;28;20035;-74
2022/06/02 00:47:48;;;;;;;6.47;4.00;;;;;;;14.46;60.89;100823.81;5071110;28;20040;-74
2022/06/02 00:50:26;;;;;;;5.68;3.00;;;;;;;14.46;60.94;100824.63;5077610;28;20044;-74
2022/06/02 00:53:03;;;;;;;4.80;3.00;;;;;;;14.45;60.99;100814.69;5076551;28;20064;-74
2022/06/02 00:58:30;;;;;;;5.15;3.55;;;;;;;14.43;61.79;100814.19;5088408;28;20390;-74
2022/06/02 01:01:04;;;;;;;4.40;3.50;;;;;;;14.40;62.18;100791.81;5080710;28;20067;-74
2022/06/02 01:03:44;;;;;;;4.00;2.55;;;;;;;14.36;61.90;100796.31;5069631;28;20047;-74
2022/06/02 01:06:18;;;;;;;3.75;3.25;;;;;;;14.35;62.37;100792.75;5077361;28;20041;-74
2022/06/02 01:09:02;;;;;;;3.90;3.20;;;;;;;14.30;62.91;100770.75;5069280;28;20086;-74
2022/06/02 01:11:39;;;;;;;5.65;3.03;;;;;;;14.30;63.21;100764.41;5070220;28;20621;-74
2022/06/02 01:14:14;;;;;;;3.10;2.80;;;;;;;14.28;63.31;100784.03;5072394;28;20082;-74
2022/06/02 01:16:58;;;;;;;5.22;3.55;;;;;;;14.25;62.94;100765.34;5073646;28;20135;-74
2022/06/02 01:19:32;;;;;;;4.95;3.53;;;;;;;14.23;63.29;100761.22;5074617;28;20041;-74
2022/06/02 01:22:03;;;;;;;5.80;3.33;;;;;;;14.17;63.69;100766.81;5069165;28;20511;-74
2022/06/02 01:24:49;;;;;;;6.22;3.20;;;;;;;14.16;63.82;100758.84;5074235;28;20123;-74
2022/06/02 01:27:28;;;;;;;3.25;2.70;;;;;;;14.14;64.62;100759.16;5065853;28;20079;-74
2022/06/02 01:30:03;;;;;;;3.80;3.50;;;;;;;14.16;64.40;100747.81;5074117;28;20173;-74
2022/06/02 01:32:39;;;;;;;4.40;3.10;;;;;;;14.10;64.17;100741.56;5070847;28;20052;-74
2022/06/02 01:35:25;;;;;;;5.15;3.58;;;;;;;14.10;64.96;100733.28;5074733;28;20059;-74
2022/06/02 01:38:02;;;;;;;4.55;3.63;;;;;;;14.09;64.96;100733.59;5078411;28;20032;-73
2022/06/02 01:40:52;;;;;;;4.10;3.70;;;;;;;14.08;65.38;100752.09;5072409;28;20448;-74
2022/06/02 01:43:25;;;;;;;4.22;3.50;;;;;;;14.08;65.52;100740.25;5090109;28;20486;-74
2022/06/02 01:46:15;;;;;;;4.30;3.30;;;;;;;14.08;65.12;100727.25;5090272;28;20491;-74
2022/06/02 01:49:02;;;;;;;4.47;2.75;;;;;;;14.11;65.44;100720.31;5083283;28;20063;-74
2022/06/02 01:51:39;;;;;;;3.38;3.08;;;;;;;14.16;65.47;100728.50;5070238;28;20075;-73
2022/06/02 01:54:16;;;;;;;3.63;3.25;;;;;;;14.16;65.88;100721.03;5069104;28;20040;-73
2022/06/02 01:56:49;;;;;;;7.55;3.67;;;;;;;14.16;66.16;100712.75;5078178;28;20039;-74
2022/06/02 01:59:34;;;;;;;3.38;2.60;;;;;;;14.15;66.33;100719.41;5076833;28;20094;-74
2022/06/02 02:02:06;;;;;;;4.07;3.45;;;;;;;14.16;65.75;100704.47;5086967;28;20032;-74
2022/06/02 02:04:51;;;;;;;4.75;3.40;;;;;;;14.14;66.07;100701.22;5084051;28;20037;-74
2022/06/02 02:07:30;;;;;;;3.97;3.60;;;;;;;14.13;65.86;100715.31;5076016;28;20044;-74
2022/06/02 02:10:01;;;;;;;4.47;3.63;;;;;;;14.09;66.76;100698.53;5088011;28;20513;-74
2022/06/02 02:12:37;;;;;;;3.83;2.85;;;;;;;14.08;66.30;100776.13;5075732;28;20036;-74
2022/06/02 02:15:03;;;;;;;3.65;2.00;;;;;;;14.14;67.28;100730.75;5073712;28;20040;-74
2022/06/02 02:17:48;;;;;;;5.93;3.28;;;;;;;14.16;67.48;100769.88;5075544;28;20155;-74
2022/06/02 02:20:30;;;;;;;2.85;2.55;;;;;;;14.21;67.38;100728.41;5083764;28;20498;-74
2022/06/02 02:23:05;;;;;;;5.45;4.15;;;;;;;14.24;67.90;100735.28;5079471;28;20054;-74
2022/06/02 02:25:52;;;;;;;7.10;4.57;;;;;;;14.24;67.14;100760.94;5081830;28;20101;-74
2022/06/02 02:28:43;;;;;;;7.18;4.63;;;;;;;14.27;67.28;100745.72;5084082;28;20040;-74
2022/06/02 02:31:09;;;;;;;6.53;4.35;;;;;;;14.31;67.72;100741.22;5074435;28;20577;-74
2022/06/02 02:34:11;;;;;;;7.47;4.38;;;;;;;14.37;67.69;100732.53;5076784;28;20040;-74
2022/06/02 02:36:59;;;;;;;8.10;5.18;;;;;;;14.45;67.89;100733.81;5071707;28;20042;-74
2022/06/02 02:39:52;;;;;;;7.22;4.53;;;;;;;14.55;67.32;100732.78;5072969;28;20411;-74
2022/06/02 02:42:24;;;;;;;8.82;5.53;;;;;;;14.57;67.64;100728.59;5082327;28;20044;-74
2022/06/02 02:45:11;;;;;;;5.43;4.75;;;;;;;14.59;67.57;100718.06;5077798;28;20043;-74
2022/06/02 02:47:50;;;;;;;7.47;5.07;;;;;;;14.56;68.60;100735.22;5071494;28;20032;-74
2022/06/02 02:50:53;;;;;;;7.53;4.57;;;;;;;14.41;69.74;100735.53;5083194;28;20513;-74
2022/06/02 02:54:17;;;;;;;8.85;5.65;;;;;;;14.25;70.00;100734.97;5044565;28;20048;-74
2022/06/02 02:56:55;;;;;;;8.20;5.05;;;;;;;14.07;70.88;100725.63;5029774;28;20520;-74
2022/06/02 02:59:27;;;;;;;9.20;5.68;;;;;;;13.92;72.81;100714.03;5030095;28;20057;-74
2022/06/02 03:02:14;;;;;;;8.52;5.00;;;;;;;13.75;74.41;100717.34;5062623;28;20040;-74
2022/06/02 03:05:01;;;;;;;7.60;4.95;;;;;;;13.55;76.71;100693.66;5077255;28;20067;-74
2022/06/02 03:07:31;;;;;;;8.32;4.43;;;;;;;13.40;75.89;100697.47;5077247;28;20636;-74
2022/06/02 03:09:56;;;;;;;6.90;4.30;;;;;;;13.28;75.92;100689.66;5073324;28;20063;-74
2022/06/02 03:12:59;;;;;;;5.38;4.22;;;;;;;13.22;76.97;100676.25;5071165;28;20064;-74
2022/06/02 03:15:44;;;;;;;7.32;4.80;;;;;;;13.11;77.84;100671.97;5086299;28;20048;-74
2022/06/02 03:18:35;;;;;;;6.50;4.88;;;;;;;13.01;79.89;100650.06;5081963;28;20126;-74
2022/06/02 03:21:20;;;;;;;7.82;5.45;;;;;;;12.85;81.05;100642.03;5071898;28;20101;-74
2022/06/02 03:24:23;;;;;;;6.97;5.00;;;;;;;12.67;81.07;100646.41;5090339;28;20043;-74
2022/06/02 03:26:58;;;;;;;6.35;4.28;;;;;;;12.53;82.31;100631.69;5083929;28;20036;-74
2022/06/02 03:29:51;;;;;;;5.95;4.38;;;;;;;12.49;81.71;100624.31;5073151;28;20040;-74
2022/06/02 03:32:41;;;;;;;3.75;3.25;;;;;;;12.41;82.44;100609.28;5075283;28;20033;-74
2022/06/02 03:35:42;;;;;;;6.05;4.10;;;;;;;12.35;83.96;100616.78;5078768;28;20509;-74
2022/06/02 03:38:27;;;;;;;6.40;5.25;;;;;;;12.35;84.19;100611.28;5070706;28;20510;-74
2022/06/02 03:41:18;;;;;;;5.68;4.68;;;;;;;12.33;83.94;100604.44;5085087;28;20418;-73
2022/06/02 03:44:10;;;;;;;8.70;5.03;;;;;;;12.24;84.80;100607.00;5072081;28;20036;-73
2022/06/02 03:47:01;;;;;;;6.75;5.07;;;;;;;12.16;86.00;100596.66;5071445;28;20063;-74
2022/06/02 03:49:46;;;;;;;6.28;4.10;;;;;;;12.10;86.73;100591.47;5069997;28;20032;-74
2022/06/02 03:52:30;;;;;;;5.00;3.85;;;;;;;12.07;86.38;100592.88;5090304;28;20031;-74
2022/06/02 03:55:01;;;;;;;6.57;3.88;;;;;;;12.10;86.98;100572.22;5086234;28;20039;-74
2022/06/02 03:57:42;;;;;;;12.60;7.03;;;;;;;12.10;87.27;100570.28;5090158;28;20039;-74
2022/06/02 04:00:08;;;;;;;20.15;10.60;;;;;;;12.08;88.38;100561.53;5086317;28;20502;-74
2022/06/02 04:02:40;;;;;;;15.05;7.88;;;;;;;12.05;88.61;100556.63;5088352;28;20092;-74
2022/06/02 04:05:22;;;;;;;28.40;13.57;;;;;;;12.07;88.48;100565.38;5082713;28;20044;-74
2022/06/02 04:08:04;;;;;;;30.30;13.90;;;;;;;12.11;88.86;100566.44;5082677;28;20040;-73
2022/06/02 04:10:45;;;;;;;34.42;16.90;;;;;;;12.18;88.73;100569.66;5073423;28;20095;-74
2022/06/02 04:16:22;;;;;;;34.88;18.52;;;;;;;12.30;88.90;100582.97;5071221;28;20051;-74
2022/06/02 04:22:00;;;;;;;32.25;16.23;;;;;;;12.37;89.45;100577.97;5070088;28;20113;-74
2022/06/02 04:24:48;;;;;;;32.10;16.63;;;;;;;12.38;89.82;100580.41;5056946;28;20487;-73
2022/06/02 04:27:23;;;;;;;26.98;13.65;;;;;;;12.42;89.60;100577.88;5070130;28;20090;-74
2022/06/02 04:30:32;;;;;;;28.15;14.38;;;;;;;12.45;90.08;100581.97;5054803;28;20037;-73
2022/06/02 04:33:09;;;;;;;27.17;15.48;;;;;;;12.45;90.65;100581.97;5086340;28;20041;-73
2022/06/02 04:36:06;;;;;;;24.08;13.70;;;;;;;12.39;90.27;100572.97;5084838;28;20075;-73
2022/06/02 04:38:51;;;;;;;28.25;13.90;;;;;;;12.37;90.44;100572.47;5071940;28;20044;-72
2022/06/02 04:41:26;;;;;;;21.48;11.75;;;;;;;12.35;91.06;100570.00;5072469;28;20044;-72
2022/06/02 04:44:05;;;;;;;18.65;10.70;;;;;;;12.36;91.87;100585.41;5067126;28;20040;-72
2022/06/02 04:46:39;;;;;;;;;;;;;;;12.34;91.38;100567.53;5077009;28;20111;-72
2022/06/02 04:49:22;;;;;;;16.13;9.50;;;;;;;12.36;92.15;100568.06;5083771;28;19919;-72
2022/06/02 04:52:20;;;;;;;10.30;7.65;;;;;;;12.36;91.79;100573.56;5073966;28;20090;-72
2022/06/02 04:55:14;;;;;;;13.70;7.90;;;;;;;12.38;92.34;100565.84;5076274;28;20039;-72
2022/06/02 04:57:54;;;;;;;11.45;6.63;;;;;;;12.40;93.32;100579.31;5076724;28;20527;-72
2022/06/02 05:00:46;;;;;;;10.55;5.93;;;;;;;12.42;93.58;100563.31;5081269;28;20070;-72
2022/06/02 05:03:36;;;;;;;10.90;7.07;;;;;;;12.45;93.70;100559.97;5070819;28;20049;-72
2022/06/02 05:06:09;;;;;;;8.05;6.20;;;;;;;12.49;93.32;100570.06;5070471;28;20036;-72
2022/06/02 05:08:35;;;;;;;8.65;6.43;;;;;;;12.52;93.30;100579.69;5083220;28;20486;-72
2022/06/02 05:11:31;;;;;;;7.43;5.18;;;;;;;12.55;94.02;100570.84;5088404;28;20051;-72
2022/06/02 05:14:24;;;;;;;8.13;5.93;;;;;;;12.58;94.42;100560.06;5068075;28;20060;-71
2022/06/02 05:17:01;;;;;;;8.55;5.20;;;;;;;12.66;94.07;100562.13;5072635;28;20051;-72
2022/06/02 05:19:35;;;;;;;8.18;5.50;;;;;;;12.79;94.40;100566.09;5074526;28;20040;-71
2022/06/02 05:22:30;;;;;;;6.38;5.05;;;;;;;12.94;94.42;100568.63;5078726;28;20094;-77
2022/06/02 05:25:08;;;;;;;10.57;5.40;;;;;;;13.05;94.24;100568.47;5069546;28;20036;-72
2022/06/02 05:27:58;;;;;;;5.60;5.00;;;;;;;13.16;94.81;100551.47;5085479;28;20072;-72
2022/06/02 05:30:48;;;;;;;7.63;5.85;;;;;;;13.28;94.31;100565.63;5090146;28;20109;-71
2022/06/02 05:33:26;;;;;;;8.00;5.68;;;;;;;13.41;95.25;100561.28;5081501;28;20054;-71
2022/06/02 05:36:06;;;;;;;8.48;6.22;;;;;;;13.48;94.70;100561.72;5077095;28;20074;-71
2022/06/02 05:39:04;;;;;;;8.18;6.13;;;;;;;13.55;94.30;100556.63;5074078;28;20534;-72
2022/06/02 05:41:58;;;;;;;7.75;6.45;;;;;;;13.64;94.44;100564.19;5074055;28;20049;-72
2022/06/02 05:44:33;;;;;;;7.32;5.82;;;;;;;13.70;94.50;100563.78;5082029;28;20044;-72
2022/06/02 05:47:14;;;;;;;9.00;6.53;;;;;;;13.75;94.05;100566.47;5074268;28;20047;-72
2022/06/02 05:50:03;;;;;;;8.98;5.90;;;;;;;13.78;94.09;100565.03;5074074;28;20040;-72
2022/06/02 05:52:47;;;;;;;10.07;7.65;;;;;;;13.82;94.24;100557.78;5080088;28;20043;-71
2022/06/02 05:55:28;;;;;;;7.97;5.75;;;;;;;13.81;94.00;100558.91;5093161;28;20040;-71
2022/06/02 05:58:06;;;;;;;9.80;6.53;;;;;;;13.89;94.17;100563.75;5091770;28;20101;-72
2022/06/02 06:00:48;;;;;;;7.68;6.50;;;;;;;13.94;94.00;100560.88;5088277;28;20067;-72
2022/06/02 06:03:35;;;;;;;8.27;6.32;;;;;;;14.06;93.90;100550.16;5083627;28;20039;-72
2022/06/02 06:06:31;;;;;;;9.20;6.50;;;;;;;14.17;93.01;100551.56;5092073;28;20123;-72
2022/06/02 06:09:02;;;;;;;9.77;6.40;;;;;;;14.27;92.71;100544.22;5074450;28;20051;-72
2022/06/02 06:11:42;;;;;;;9.57;7.80;;;;;;;14.42;93.44;100549.41;5082584;28;20082;-72
2022/06/02 06:14:18;;;;;;;10.70;7.07;;;;;;;14.56;92.71;100541.94;5092413;28;20032;-72
2022/06/02 06:17:19;;;;;;;8.13;6.40;;;;;;;14.68;92.75;100549.69;5093732;28;20040;-72
2022/06/02 06:20:30;;;;;;;7.22;5.75;;;;;;;14.84;90.86;100547.41;5071062;28;20055;-72
2022/06/02 06:23:21;;;;;;;6.55;5.38;;;;;;;14.97;90.97;100558.41;5077504;28;20051;-72
2022/06/02 06:25:49;;;;;;;7.50;6.22;;;;;;;14.99;90.87;100556.16;5075190;28;20047;-72
2022/06/02 06:28:18;;;;;;;6.45;5.78;;;;;;;14.94;89.84;100547.16;5073307;28;20044;-71
2022/06/02 06:30:49;;;;;;;9.77;6.65;;;;;;;14.93;89.51;100543.59;5072003;28;20047;-72
2022/06/02 06:33:45;;;;;;;9.50;6.68;;;;;;;14.94;88.80;100549.94;5072939;28;20044;-72
2022/06/02 06:36:30;;;;;;;8.45;5.63;;;;;;;15.07;88.50;100547.09;5077054;28;20077;-72
2022/06/02 06:39:04;;;;;;;7.13;5.65;;;;;;;15.37;87.43;100553.81;5088080;28;20127;-72
2022/06/02 06:41:41;;;;;;;10.85;6.53;;;;;;;15.55;87.02;100556.69;5073021;28;20568;-72
2022/06/02 06:44:25;;;;;;;8.60;6.65;;;;;;;15.59;87.13;100561.31;5062572;28;20503;-72
2022/06/02 06:47:06;;;;;;;8.05;5.82;;;;;;;15.63;86.59;100564.28;5072962;28;20495;-72
2022/06/02 06:49:51;;;;;;;7.47;5.55;;;;;;;15.58;86.46;100565.16;5073011;28;20036;-72
2022/06/02 06:52:17;;;;;;;7.75;5.38;;;;;;;15.56;84.78;100563.84;5073458;28;20047;-72
2022/06/02 06:55:10;;;;;;;9.20;6.30;;;;;;;15.53;84.42;100575.56;5072719;28;20481;-71
2022/06/02 06:57:41;;;;;;;7.75;5.95;;;;;;;15.58;84.58;100569.88;5072578;28;20037;-72
2022/06/02 07:00:33;;;;;;;10.98;6.15;;;;;;;15.61;84.18;100566.50;5072488;28;20037;-71
2022/06/02 07:03:08;;;;;;;8.30;6.03;;;;;;;15.79;83.30;100559.94;5073052;28;20036;-72
2022/06/02 07:05:38;;;;;;;8.77;5.80;;;;;;;16.21;83.99;100563.22;5067305;28;20094;-72
2022/06/02 07:08:36;;;;;;;7.00;4.80;;;;;;;16.71;82.44;100554.56;5072530;28;20043;-72
2022/06/02 07:14:17;;;;;;;7.63;5.25;;;;;;;17.64;76.58;100577.03;5077361;28;20185;-72
2022/06/02 07:16:49;;;;;;;7.53;5.05;;;;;;;17.71;74.60;100582.13;5091722;28;20147;-72
2022/06/02 07:19:38;;;;;;;6.47;5.22;;;;;;;17.59;74.43;100568.88;5074591;28;20031;-72
2022/06/02 07:22:10;;;;;;;7.63;5.30;;;;;;;17.54;74.56;100566.28;5092478;28;20506;-72
2022/06/02 07:24:50;;;;;;;7.60;5.70;;;;;;;17.79;73.71;100578.47;5084377;28;20044;-72
2022/06/02 07:27:24;;;;;;;5.97;5.45;;;;;;;17.85;72.58;100566.03;5105067;28;20081;-72
2022/06/02 07:30:07;;;;;;;7.03;5.65;;;;;;;17.95;72.08;100570.44;5104534;28;20127;-72
2022/06/02 07:32:51;;;;;;;6.35;4.97;;;;;;;18.24;70.78;100573.25;5071202;28;20042;-72
2022/06/02 07:35:54;;;;;;;6.65;4.63;;;;;;;18.22;69.52;100569.16;5072089;28;20135;-72
2022/06/02 07:38:28;;;;;;;6.75;5.32;;;;;;;18.27;69.74;100577.31;5072233;28;20048;-72
2022/06/02 07:41:23;;;;;;;6.93;5.35;;;;;;;18.31;69.06;100579.09;5081246;28;20040;-72
2022/06/02 07:43:54;;;;;;;7.45;5.35;;;;;;;18.52;68.68;100573.56;5092021;28;20040;-72
2022/06/02 07:46:52;;;;;;;5.43;4.75;;;;;;;18.71;67.38;100581.50;5092259;28;20546;-72
2022/06/02 07:49:47;;;;;;;8.13;5.90;;;;;;;18.95;67.71;100578.88;5090586;28;20051;-72
2022/06/02 07:52:23;;;;;;;7.55;4.97;;;;;;;19.01;66.75;100582.28;5073775;28;20048;-72
2022/06/02 07:54:53;;;;;;;8.30;5.20;;;;;;;18.92;65.95;100581.53;5073600;28;20064;-72
2022/06/02 07:57:28;;;;;;;4.95;4.28;;;;;;;18.94;65.65;100580.03;5091168;28;20394;-72
2022/06/02 08:00:04;;;;;;;7.03;4.75;;;;;;;18.80;65.18;100584.22;5090433;28;20131;-72
2022/06/02 08:02:43;;;;;;;9.38;4.93;;;;;;;18.63;64.61;100597.09;5084385;28;20037;-72
2022/06/02 08:05:46;;;;;;;8.95;5.28;;;;;;;18.63;63.64;100599.88;5086567;28;20040;-72
2022/06/02 08:08:17;;;;;;;9.10;5.00;;;;;;;18.57;63.26;100587.28;5070733;28;20040;-72
2022/06/02 08:10:43;;;;;;;5.43;4.60;;;;;;;18.43;62.67;100592.28;5070689;28;20040;-72
2022/06/02 08:13:44;;;;;;;5.55;4.20;;;;;;;18.41;62.51;100591.00;5071361;28;20044;-72
2022/06/02 08:16:42;;;;;;;6.05;4.30;;;;;;;18.78;62.34;100581.78;5055141;28;20036;-72
2022/06/02 08:19:11;;;;;;;4.15;3.80;;;;;;;18.94;60.43;100582.81;5069957;28;20032;-72
2022/06/02 08:21:40;;;;;;;5.43;4.57;;;;;;;19.33;59.36;100583.47;5069822;28;20047;-72
2022/06/02 08:24:34;;;;;;;4.90;4.40;;;;;;;19.64;58.32;100583.03;5071522;28;20082;-72
2022/06/02 08:27:19;;;;;;;7.95;4.78;;;;;;;19.57;58.62;100588.34;5069944;28;20422;-72
2022/06/02 08:30:13;;;;;;;5.15;4.50;;;;;;;19.42;57.69;100594.50;5070004;28;20040;-72
2022/06/02 08:33:09;;;;;;;8.73;4.72;;;;;;;19.40;58.02;100592.06;5083657;28;20036;-72
2022/06/02 08:35:44;;;;;;;4.60;4.10;;;;;;;19.45;57.93;100600.22;5090088;28;20043;-72
2022/06/02 08:38:34;;;;;;;7.20;4.63;;;;;;;19.40;57.96;100603.19;5089804;28;20436;-71
2022/06/02 08:41:45;;;;;;;5.97;4.25;;;;;;;19.24;57.36;100604.97;5091020;28;20198;-72
2022/06/02 08:44:45;;;;;;;6.82;4.53;;;;;;;19.08;57.49;100609.53;5068990;28;20139;-72
2022/06/02 08:47:23;;;;;;;6.00;4.55;;;;;;;18.98;57.69;100611.56;5079101;28;20536;-72
2022/06/02 08:50:20;;;;;;;10.20;5.03;;;;;;;18.92;59.04;100610.16;5088737;28;20131;-72
2022/06/02 08:53:04;;;;;;;5.67;4.80;;;;;;;18.91;58.11;100619.63;5070769;28;20044;-72
2022/06/02 08:56:29;;;;;;;5.47;4.38;;;;;;;18.83;58.19;100620.50;5086232;28;20533;-72
2022/06/02 08:59:09;;;;;;;6.05;4.63;;;;;;;18.84;58.46;100621.31;5051273;28;20049;-72
2022/06/02 09:01:59;;;;;;;4.78;4.38;;;;;;;18.83;58.17;100628.84;5068277;28;20047;-71
2022/06/02 09:04:53;;;;;;;4.97;4.45;;;;;;;19.26;58.10;100636.06;5066620;28;20051;-72
2022/06/02 09:07:44;;;;;;;4.97;4.22;;;;;;;19.53;57.15;100641.06;5081970;28;20086;-72
2022/06/02 09:10:28;;;;;;;5.10;4.57;;;;;;;19.75;56.68;100630.72;5094667;28;20071;-72
2022/06/02 09:13:22;;;;;;;4.20;3.75;;;;;;;19.91;54.25;100628.13;5081765;28;20120;-72
2022/06/02 09:16:16;;;;;;;3.75;3.30;;;;;;;19.84;54.31;100626.72;5074752;28;20414;-72
2022/06/02 09:19:03;;;;;;;4.07;3.60;;;;;;;20.06;53.76;100636.63;5086676;28;20097;-72
2022/06/02 09:22:05;;;;;;;5.57;3.78;;;;;;;20.44;52.23;100641.94;5073265;28;20131;-72
2022/06/02 09:25:18;;;;;;;3.85;2.88;;;;;;;20.56;50.55;100640.31;5074321;28;20072;-72
2022/06/02 09:27:59;;;;;;;3.30;3.00;;;;;;;20.59;49.78;100632.06;5092688;28;20047;-72
2022/06/02 09:31:02;;;;;;;8.85;3.47;;;;;;;20.61;49.69;100645.66;5093613;28;20047;-71
2022/06/02 09:33:46;;;;;;;2.63;2.42;;;;;;;20.49;49.12;100643.69;5073067;28;20041;-72
2022/06/02 09:36:39;;;;;;;4.55;3.15;;;;;;;20.26;49.34;100634.91;5074206;28;20051;-72
2022/06/02 09:39:42;;;;;;;3.60;2.90;;;;;;;20.12;50.00;100640.81;5075108;28;20028;-72
2022/06/02 09:42:23;;;;;;;2.58;2.05;;;;;;;19.98;50.27;100645.91;5073866;28;20036;-72
2022/06/02 09:45:09;;;;;;;3.92;2.80;;;;;;;19.87;50.07;100662.22;5074153;28;20519;-71
2022/06/02 09:47:56;;;;;;;3.17;2.58;;;;;;;19.72;49.96;100660.06;5085410;28;20047;-74
2022/06/02 09:50:47;;;;;;;3.13;2.78;;;;;;;19.63;49.83;100651.00;5074141;28;20040;-73
2022/06/02 09:53:31;;;;;;;3.00;2.25;;;;;;;19.62;49.43;100656.94;5072753;28;20047;-72
2022/06/02 09:56:25;;;;;;;3.67;2.40;;;;;;;19.57;48.96;100653.16;5074619;28;20032;-72
2022/06/02 09:59:28;;;;;;;2.70;2.17;;;;;;;19.62;48.73;100656.94;5093765;28;20044;-72
2022/06/02 10:02:30;;;;;;;3.40;2.25;;;;;;;19.64;48.56;100660.19;5093826;28;20502;-72
2022/06/02 10:05:04;;;;;;;2.70;2.50;;;;;;;19.66;48.49;100666.22;5074151;28;20106;-71
2022/06/02 10:07:43;;;;;;;2.25;2.05;;;;;;;19.71;48.57;100677.13;5076704;28;20051;-71
2022/06/02 10:10:14;;;;;;;3.03;2.28;;;;;;;19.68;49.20;100680.59;5085680;28;20040;-71
2022/06/02 10:12:58;;;;;;;2.88;2.58;;;;;;;19.64;49.87;100676.88;5093375;28;20126;-70
2022/06/02 10:15:36;;;;;;;2.33;2.13;;;;;;;19.64;50.80;100685.22;5093787;28;20089;-70
2022/06/02 10:18:48;;;;;;;2.70;2.50;;;;;;;19.65;50.11;100686.84;5092172;28;20040;-70
2022/06/02 10:21:37;;;;;;;2.35;2.15;;;;;;;19.72;50.21;100689.91;5072542;28;20032;-70
2022/06/02 10:24:10;;;;;;;3.38;2.50;;;;;;;19.71;46.85;100697.44;5073403;28;20040;-70
2022/06/02 10:27:12;;;;;;;2.25;2.05;;;;;;;19.68;47.08;100686.97;5073308;28;20132;-70
2022/06/02 10:30:04;;;;;;;3.10;1.80;;;;;;;19.75;47.43;100680.84;5072913;28;20047;-70
2022/06/02 10:33:06;;;;;;;2.35;1.95;;;;;;;19.80;47.49;100689.00;5089757;28;20028;-71
2022/06/02 10:36:10;;;;;;;4.78;2.17;;;;;;;19.82;47.61;100697.84;5079820;28;20521;-71
2022/06/02 10:38:52;;;;;;;3.88;2.15;;;;;;;19.82;47.35;100706.19;5080923;28;20044;-72
2022/06/02 10:41:18;;;;;;;2.75;2.05;;;;;;;19.84;46.97;100706.66;5102541;28;20041;-72
2022/06/02 10:44:08;;;;;;;3.53;2.08;;;;;;;19.91;46.71;100700.53;5074322;28;20106;-72
2022/06/02 10:47:08;;;;;;;1.60;1.50;;;;;;;19.87;47.21;100709.56;5081448;28;20075;-71
2022/06/02 10:49:38;;;;;;;3.75;1.42;;;;;;;19.86;47.48;100715.47;5077080;28;20051;-72
2022/06/02 10:52:23;;;;;;;2.05;1.85;;;;;;;19.81;47.90;100718.50;5087569;28;20036;-71
2022/06/02 10:55:31;;;;;;;3.22;2.28;;;;;;;19.68;47.37;100731.53;5084230;28;20040;-71
2022/06/02 10:58:21;;;;;;;3.43;2.53;;;;;;;19.53;48.07;100740.47;5062285;28;20052;-71
2022/06/02 11:01:23;;;;;;;1.80;1.70;;;;;;;19.45;48.24;100742.16;5073781;28;20078;-72
2022/06/02 11:04:07;;;;;;;1.63;1.52;;;;;;;19.43;48.25;100741.66;5072817;28;20033;-72
2022/06/02 11:07:00;;;;;;;2.67;1.95;;;;;;;19.43;49.21;100747.22;5074493;28;20040;-73
2022/06/02 11:09:45;;;;;;;3.13;2.00;;;;;;;19.53;49.07;100757.16;5072904;28;20042;-73
2022/06/02 11:12:22;;;;;;;2.63;1.85;;;;;;;19.55;48.96;100755.69;5071368;28;20064;-73
2022/06/02 11:15:08;;;;;;;4.28;2.00;;;;;;;19.57;47.79;100753.38;5076208;28;20553;-73
2022/06/02 11:18:06;;;;;;;2.00;1.73;;;;;;;19.53;47.42;100760.75;5082097;28;20098;-73
2022/06/02 11:20:43;;;;;;;1.88;1.75;;;;;;;19.42;46.60;100764.25;5071069;28;20049;-74
2022/06/02 11:23:31;;;;;;;2.92;1.83;;;;;;;19.35;46.72;100773.16;5070888;28;20131;-74
2022/06/02 11:26:29;;;;;;;2.53;2.00;;;;;;;19.36;46.79;100777.56;5072519;28;20043;-73
2022/06/02 11:29:16;;;;;;;2.53;1.48;;;;;;;19.35;47.09;100773.16;5089021;28;20452;-74
2022/06/02 11:31:57;;;;;;;3.30;1.73;;;;;;;19.28;46.35;100772.88;5072747;28;20140;-74
2022/06/02 11:34:50;;;;;;;1.60;1.50;;;;;;;19.20;47.06;100776.53;5090572;28;20092;-73
2022/06/02 11:37:43;;;;;;;1.80;1.70;;;;;;;19.19;46.82;100781.28;5087474;28;20040;-74
2022/06/02 11:40:48;;;;;;;1.63;1.52;;;;;;;19.12;46.54;100794.09;5092226;28;20127;-74
2022/06/02 11:43:24;;;;;;;3.45;1.85;;;;;;;19.14;46.89;100787.03;5074371;28;20040;-74
2022/06/02 11:46:23;;;;;;;2.75;1.40;;;;;;;19.17;46.43;100793.88;5071878;28;20044;-74
2022/06/02 11:49:07;;;;;;;2.15;1.42;;;;;;;19.08;46.64;100795.88;5082281;28;20033;-74
2022/06/02 11:51:54;;;;;;;2.30;1.38;;;;;;;18.99;46.23;100804.28;5095869;28;20040;-73
2022/06/02 11:54:45;;;;;;;1.92;1.70;;;;;;;18.92;45.98;100804.81;5078208;28;20101;-74
2022/06/02 11:57:40;;;;;;;2.47;2.28;;;;;;;18.90;45.98;100806.25;5090422;28;20575;-73
2022/06/02 12:00:44;;;;;;;1.58;1.48;;;;;;;18.93;45.31;100817.56;5070315;28;20062;-74
2022/06/02 12:03:33;;;;;;;1.98;1.60;;;;;;;19.04;45.41;100828.31;5083106;28;20035;-73
2022/06/02 12:06:14;;;;;;;1.83;1.73;;;;;;;19.15;45.11;100830.38;5084955;28;20442;-73
2022/06/02 12:09:01;;;;;;;2.40;1.40;;;;;;;19.24;44.30;100825.59;5085220;28;20461;-73
2022/06/02 12:11:35;;;;;;;2.22;1.55;;;;;;;19.23;43.83;100823.13;5088443;28;20039;-74
2022/06/02 12:14:20;;;;;;;2.78;1.70;;;;;;;19.29;43.81;100827.38;5098603;28;20130;-73
2022/06/02 12:17:00;;;;;;;1.67;1.58;;;;;;;19.29;43.62;100824.59;5091397;28;20040;-73
2022/06/02 12:19:28;;;;;;;1.77;1.63;;;;;;;19.20;42.77;100832.16;5089913;28;20427;-73
2022/06/02 12:22:16;;;;;;;1.50;1.40;;;;;;;19.10;42.96;100833.38;5079613;28;20052;-73
2022/06/02 12:24:49;;;;;;;1.52;1.25;;;;;;;19.10;42.48;100827.81;5073534;28;20039;-73
2022/06/02 12:27:27;;;;;;;1.90;1.30;;;;;;;19.09;42.36;100819.75;5089382;28;20036;-73
2022/06/02 12:30:29;;;;;;;1.43;1.23;;;;;;;19.09;42.67;100836.44;5090832;28;20410;-73
2022/06/02 12:32:59;;;;;;;2.78;1.63;;;;;;;19.08;42.74;100824.50;5076619;28;20135;-73
2022/06/02 12:36:00;;;;;;;3.58;1.60;;;;;;;19.09;42.86;100833.66;5077500;28;20407;-73
2022/06/02 12:38:43;;;;;;;2.13;1.70;;;;;;;19.10;42.89;100838.13;5053162;28;20542;-74
2022/06/02 12:41:30;;;;;;;1.55;1.45;;;;;;;19.15;43.12;100835.94;5083704;28;20044;-74
2022/06/02 12:43:56;;;;;;;3.70;1.45;;;;;;;19.25;43.11;100834.75;5069757;28;20045;-74
2022/06/02 12:47:00;;;;;;;1.58;1.48;;;;;;;19.30;42.98;100829.00;5070953;28;20402;-75
2022/06/02 12:49:35;;;;;;;1.50;1.35;;;;;;;19.26;43.02;100836.38;5088264;28;20097;-75
2022/06/02 12:52:44;;;;;;;1.52;1.42;;;;;;;19.20;43.00;100835.75;5087335;28;20044;-77
2022/06/02 12:55:40;;;;;;;1.63;1.52;;;;;;;19.18;42.88;100840.03;5087380;28;20040;-77